createdAt,value
2022-10-28T00:02:42.590Z,8.45
2022-10-28T00:07:45.961Z,8.54
2022-10-28T00:12:49.159Z,8.63
2022-10-28T00:17:53.058Z,8.57
2022-10-28T00:22:56.842Z,8.46
2022-10-28T00:28:02.496Z,8.39
2022-10-28T00:33:05.649Z,8.42
2022-10-28T00:38:08.836Z,8.44
2022-10-28T00:43:12.688Z,8.44
2022-10-28T00:48:15.853Z,8.45
2022-10-28T00:53:25.703Z,8.48
2022-10-28T00:58:29.815Z,8.52
2022-10-28T01:03:33.005Z,8.56
2022-10-28T01:08:36.222Z,8.59
2022-10-28T01:13:44.540Z,8.59
2022-10-28T01:18:59.698Z,8.58
2022-10-28T01:24:30.215Z,8.56
2022-10-28T01:30:07.121Z,8.53
2022-10-28T01:35:26.113Z,8.55
2022-10-28T01:40:40.796Z,8.56
2022-10-28T01:45:59.973Z,8.53
2022-10-28T01:51:29.740Z,8.50
2022-10-28T01:56:39.572Z,8.44
2022-10-28T02:01:42.978Z,8.43
2022-10-28T02:06:48.750Z,8.45
2022-10-28T02:12:17.242Z,8.45
2022-10-28T02:17:45.451Z,8.44
2022-10-28T02:22:55.829Z,8.47
2022-10-28T02:33:19.125Z,8.48
2022-10-28T02:38:39.835Z,8.49
2022-10-28T02:43:44.199Z,8.50
2022-10-28T02:48:55.534Z,8.49
2022-10-28T02:54:09.662Z,8.46
2022-10-28T02:59:13.571Z,8.45
2022-10-28T03:04:16.715Z,8.47
2022-10-28T03:09:19.928Z,8.50
2022-10-28T03:14:23.188Z,8.55
2022-10-28T03:19:26.380Z,8.55
2022-10-28T03:24:30.199Z,8.57
2022-10-28T03:29:36.261Z,8.60
2022-10-28T03:34:39.715Z,8.62
2022-10-28T03:39:43.046Z,8.66
2022-10-28T03:44:46.692Z,8.69
2022-10-28T03:49:50.613Z,8.71
2022-10-28T03:54:53.713Z,8.70
2022-10-28T03:59:56.805Z,8.68
2022-10-28T04:05:00.176Z,8.66
2022-10-28T04:10:03.673Z,8.63
2022-10-28T04:15:09.252Z,8.60
2022-10-28T04:20:16.960Z,8.55
2022-10-28T04:25:20.339Z,8.50
2022-10-28T04:30:23.698Z,8.46
2022-10-28T04:35:26.918Z,8.40
2022-10-28T04:40:33.047Z,8.37
2022-10-28T04:45:36.109Z,8.36
2022-10-28T04:50:39.389Z,8.35
2022-10-28T04:55:46.795Z,8.33
2022-10-28T05:00:50.062Z,8.29
2022-10-28T05:05:53.189Z,8.23
2022-10-28T05:10:58.825Z,8.17
2022-10-28T05:16:03.344Z,8.16
2022-10-28T05:21:11.644Z,8.12
2022-10-28T05:26:20.331Z,8.08
2022-10-28T05:31:32.918Z,8.07
2022-10-28T05:36:39.289Z,8.09
2022-10-28T05:41:42.817Z,8.13
2022-10-28T05:46:46.057Z,8.13
2022-10-28T05:51:49.764Z,8.11
2022-10-28T05:56:55.654Z,8.11
2022-10-28T06:01:58.944Z,8.17
2022-10-28T06:07:02.180Z,8.28
2022-10-28T06:12:05.471Z,8.45
2022-10-28T06:17:08.798Z,8.62
2022-10-28T06:22:12.020Z,8.79
2022-10-28T06:27:15.253Z,8.97
2022-10-28T06:32:20.239Z,9.20
2022-10-28T06:37:23.535Z,9.51
2022-10-28T06:42:26.693Z,9.84
2022-10-28T06:47:31.424Z,10.14
2022-10-28T06:52:35.241Z,10.38
2022-10-28T06:57:48.651Z,10.62
2022-10-28T07:03:07.871Z,10.83
2022-10-28T07:08:15.224Z,11.04
2022-10-28T07:13:19.876Z,11.31
2022-10-28T07:18:35.105Z,11.57
2022-10-28T07:23:51.894Z,11.85
2022-10-28T07:28:58.298Z,12.12
2022-10-28T07:34:01.685Z,12.37
2022-10-28T07:39:06.005Z,12.57
2022-10-28T07:44:10.801Z,12.73
2022-10-28T07:49:18.255Z,12.91
2022-10-28T07:54:22.895Z,13.09
2022-10-28T07:59:26.935Z,13.26
2022-10-28T08:04:33.654Z,13.42
2022-10-28T08:09:41.127Z,13.57
2022-10-28T08:14:47.464Z,13.70
2022-10-28T08:19:50.824Z,13.81
2022-10-28T08:24:58.112Z,13.98
2022-10-28T08:30:09.455Z,14.18
2022-10-28T08:35:28.848Z,14.36
2022-10-28T08:40:42.252Z,14.53
2022-10-28T08:46:03.540Z,14.77
2022-10-28T08:51:19.926Z,15.05
2022-10-28T08:56:40.637Z,15.27
2022-10-28T09:06:56.795Z,15.67
2022-10-28T09:12:34.996Z,15.86
2022-10-28T09:17:47.729Z,16.10
2022-10-28T09:22:59.247Z,16.29
2022-10-28T09:28:05.402Z,16.55
2022-10-28T09:33:34.111Z,16.82
2022-10-28T09:38:38.218Z,17.08
2022-10-28T09:43:58.524Z,17.29
2022-10-28T09:49:17.993Z,17.50
2022-10-28T09:54:31.629Z,17.73
2022-10-28T09:59:34.876Z,17.91
2022-10-28T10:04:38.020Z,18.03
2022-10-28T10:09:41.440Z,18.20
2022-10-28T10:14:54.580Z,18.40
2022-10-28T10:20:12.179Z,18.62
2022-10-28T10:25:18.732Z,18.79
2022-10-28T10:30:24.732Z,18.99
2022-10-28T10:35:33.621Z,19.23
2022-10-28T10:40:49.471Z,19.51
2022-10-28T10:46:02.238Z,19.77
2022-10-28T10:51:25.959Z,20.02
2022-10-28T10:56:31.582Z,20.34
2022-10-28T11:01:37.691Z,20.63
2022-10-28T11:06:42.676Z,20.89
2022-10-28T11:11:46.190Z,21.11
2022-10-28T11:16:52.182Z,21.36
2022-10-28T11:22:21.476Z,21.55
2022-10-28T11:27:48.685Z,21.73
2022-10-28T11:33:28.862Z,21.84
2022-10-28T11:39:12.514Z,22.01
2022-10-28T11:44:55.837Z,22.15
2022-10-28T11:50:25.606Z,22.30
2022-10-28T11:55:57.895Z,22.44
2022-10-28T12:01:31.292Z,22.52
2022-10-28T12:07:05.417Z,22.64
2022-10-28T12:12:33.704Z,22.75
2022-10-28T12:17:47.203Z,22.85
2022-10-28T12:22:56.764Z,22.90
2022-10-28T12:28:11.315Z,22.96
2022-10-28T12:33:46.453Z,23.01
2022-10-28T12:39:01.575Z,23.08
2022-10-28T12:44:17.012Z,23.15
2022-10-28T12:49:44.283Z,23.20
2022-10-28T12:54:55.951Z,23.27
2022-10-28T13:00:10.371Z,23.31
2022-10-28T13:05:43.759Z,23.37
2022-10-28T13:11:21.455Z,23.40
2022-10-28T13:16:40.919Z,23.39
2022-10-28T13:22:05.719Z,23.32
2022-10-28T13:27:17.065Z,23.20
2022-10-28T13:32:39.240Z,23.09
2022-10-28T13:37:48.713Z,23.03
2022-10-28T13:49:34.745Z,22.88
2022-10-28T13:55:01.064Z,22.82
2022-10-28T14:00:24.543Z,22.74
2022-10-28T14:05:37.106Z,22.65
2022-10-28T14:10:41.607Z,22.60
2022-10-28T14:15:49.361Z,22.57
2022-10-28T14:21:02.149Z,22.53
2022-10-28T14:26:08.206Z,22.45
2022-10-28T14:31:16.318Z,22.36
2022-10-28T14:36:20.095Z,22.27
2022-10-28T14:47:18.756Z,22.04
2022-10-28T14:52:24.398Z,21.82
2022-10-28T14:57:34.103Z,21.57
2022-10-28T15:02:38.581Z,21.29
2022-10-28T15:07:42.633Z,20.97
2022-10-28T15:12:52.321Z,20.60
2022-10-28T15:18:10.174Z,20.20
2022-10-28T15:23:13.433Z,19.80
2022-10-28T15:28:19.247Z,19.47
2022-10-28T15:33:42.025Z,19.19
2022-10-28T15:38:50.960Z,18.83
2022-10-28T15:44:37.475Z,18.49
2022-10-28T15:49:41.143Z,18.15
2022-10-28T15:55:35.613Z,17.89
2022-10-28T16:00:54.545Z,17.52
2022-10-28T16:06:21.798Z,17.23
2022-10-28T16:12:03.471Z,16.96
2022-10-28T16:17:21.967Z,16.75
2022-10-28T16:22:43.914Z,16.58
2022-10-28T16:27:51.071Z,16.42
2022-10-28T16:32:57.186Z,16.27
2022-10-28T16:38:01.075Z,16.10
2022-10-28T16:43:04.281Z,15.95
2022-10-28T16:48:13.268Z,15.83
2022-10-28T16:53:20.007Z,15.71
2022-10-28T16:58:27.035Z,15.55
2022-10-28T17:03:31.539Z,15.35
2022-10-28T17:09:02.007Z,15.16
2022-10-28T17:14:02.984Z,14.97
2022-10-28T17:19:06.183Z,14.80
2022-10-28T17:24:09.995Z,14.65
2022-10-28T17:29:13.409Z,14.50
2022-10-28T17:34:20.059Z,14.37
2022-10-28T17:39:26.455Z,14.25
2022-10-28T17:44:34.742Z,14.12
2022-10-28T17:49:42.617Z,14.02
2022-10-28T17:54:46.419Z,13.91
2022-10-28T17:59:49.639Z,13.81
2022-10-28T18:04:52.828Z,13.73
2022-10-28T18:09:56.090Z,13.64
2022-10-28T18:15:03.105Z,13.55
2022-10-28T18:20:07.188Z,13.47
2022-10-28T18:25:13.133Z,13.38
2022-10-28T18:30:17.095Z,13.29
2022-10-28T18:35:21.826Z,13.21
2022-10-28T18:40:28.020Z,13.16
2022-10-28T18:45:34.003Z,13.10
2022-10-28T18:50:49.221Z,13.01
2022-10-28T18:56:23.261Z,12.94
2022-10-28T19:01:30.525Z,12.86
2022-10-28T19:06:42.683Z,12.77
2022-10-28T19:11:49.915Z,12.68
2022-10-28T19:16:53.235Z,12.62
2022-10-28T19:22:00.689Z,12.57
2022-10-28T19:27:20.577Z,12.46
2022-10-28T19:32:44.176Z,12.36
2022-10-28T19:38:20.523Z,12.29
2022-10-28T19:43:45.152Z,12.20
2022-10-28T19:49:04.854Z,12.13
2022-10-28T19:54:24.023Z,12.09
2022-10-28T20:00:06.841Z,12.04
2022-10-28T20:05:15.341Z,11.94
2022-10-28T20:10:32.051Z,11.87
2022-10-28T20:15:38.557Z,11.89
2022-10-28T20:20:48.111Z,11.93
2022-10-28T20:25:52.663Z,11.96
2022-10-28T20:31:07.071Z,11.94
2022-10-28T20:36:39.242Z,11.94
2022-10-28T20:41:51.830Z,11.89
2022-10-28T20:46:59.056Z,11.85
2022-10-28T20:52:05.140Z,11.78
2022-10-28T20:57:08.553Z,11.70
2022-10-28T21:02:12.467Z,11.61
2022-10-28T21:07:16.020Z,11.51
2022-10-28T21:12:19.303Z,11.40
2022-10-28T21:17:24.068Z,11.29
2022-10-28T21:22:29.628Z,11.17
2022-10-28T21:27:40.153Z,11.13
2022-10-28T21:32:44.236Z,11.12
2022-10-28T21:37:50.584Z,11.12
2022-10-28T21:42:55.540Z,11.11
2022-10-28T21:47:59.212Z,11.10
2022-10-28T21:53:04.355Z,11.08
2022-10-28T21:58:11.507Z,11.00
2022-10-28T22:03:14.814Z,10.90
2022-10-28T22:08:18.132Z,10.80
2022-10-28T22:13:21.472Z,10.72
2022-10-28T22:18:25.415Z,10.71
2022-10-28T22:23:28.890Z,10.69
2022-10-28T22:28:32.590Z,10.66
2022-10-28T22:33:36.142Z,10.68
2022-10-28T22:38:40.321Z,10.73
2022-10-28T22:43:46.466Z,10.74
2022-10-28T22:48:53.218Z,10.75
2022-10-28T22:53:56.587Z,10.78
2022-10-28T22:59:01.647Z,10.83
2022-10-28T23:04:10.176Z,10.89
2022-10-28T23:09:13.590Z,10.95
2022-10-28T23:14:16.951Z,10.97
2022-10-28T23:19:20.287Z,10.99
2022-10-28T23:24:23.539Z,11.00
2022-10-28T23:29:26.847Z,10.99
2022-10-28T23:34:30.949Z,10.94
2022-10-28T23:39:34.297Z,10.90
2022-10-28T23:44:37.734Z,10.86
2022-10-28T23:49:43.851Z,10.83
2022-10-28T23:54:47.218Z,10.84
2022-10-28T23:59:50.509Z,10.88
